Terminal Aerodrome Forecast
Issued by NWS North Platte, NE

Home | Current Version | Previous Version | Text Only | Print | Product List | Glossary On
Versions: 1 2 3 4 5 6 7 8 9 10 11 12 13 14 15
000
FTUS43 KLBF 222341
TAFLBF
TAF
KLBF 222341Z 2300/2324 01007KT P6SM FEW250
     FM230600 05010KT P6SM SCT100 OVC250
     FM231200 06015G23KT 6SM -RASN SCT008 OVC025
     FM231500 07016G24KT 4SM -RASN OVC008
     FM231800 07016G24KT 4SM -RASN BKN004 OVC008
     FM232000 06014G21KT 2SM -SN OVC003=

USA.gov is the U.S. government's official web portal to all federal, state and local government web resources and services.